sensor_id;sensor_type;location;lat;lon;timestamp;temperature;humidity
1806;DHT22;901;48.142;11.516;2023-05-31T00:00:16;15.10;99.90
1806;DHT22;901;48.142;11.516;2023-05-31T00:02:43;15.00;99.90
1806;DHT22;901;48.142;11.516;2023-05-31T00:05:11;15.00;99.90
1806;DHT22;901;48.142;11.516;2023-05-31T00:07:38;15.00;99.90
1806;DHT22;901;48.142;11.516;2023-05-31T00:10:06;15.00;99.90
1806;DHT22;901;48.142;11.516;2023-05-31T00:12:33;14.90;99.90
1806;DHT22;901;48.142;11.516;2023-05-31T00:15:00;14.80;99.90
1806;DHT22;901;48.142;11.516;2023-05-31T00:17:26;14.80;99.90
1806;DHT22;901;48.142;11.516;2023-05-31T00:19:53;14.70;99.90
1806;DHT22;901;48.142;11.516;2023-05-31T00:22:22;14.70;99.90
1806;DHT22;901;48.142;11.516;2023-05-31T00:24:49;14.70;99.90
1806;DHT22;901;48.142;11.516;2023-05-31T00:27:15;14.70;99.90
1806;DHT22;901;48.142;11.516;2023-05-31T00:29:42;14.70;99.90
1806;DHT22;901;48.142;11.516;2023-05-31T00:32:09;14.70;99.90
1806;DHT22;901;48.142;11.516;2023-05-31T00:34:36;14.60;99.90
1806;DHT22;901;48.142;11.516;2023-05-31T00:37:03;14.50;99.90
1806;DHT22;901;48.142;11.516;2023-05-31T00:39:32;14.50;99.90
1806;DHT22;901;48.142;11.516;2023-05-31T00:41:59;14.50;99.90
1806;DHT22;901;48.142;11.516;2023-05-31T00:44:26;14.40;99.90
1806;DHT22;901;48.142;11.516;2023-05-31T00:46:53;14.30;99.90
1806;DHT22;901;48.142;11.516;2023-05-31T00:49:20;14.30;99.90
1806;DHT22;901;48.142;11.516;2023-05-31T00:51:47;14.30;99.90
1806;DHT22;901;48.142;11.516;2023-05-31T00:54:14;14.30;99.90
1806;DHT22;901;48.142;11.516;2023-05-31T00:56:42;14.30;99.90
1806;DHT22;901;48.142;11.516;2023-05-31T00:59:10;14.30;99.90
1806;DHT22;901;48.142;11.516;2023-05-31T01:01:38;14.20;99.90
1806;DHT22;901;48.142;11.516;2023-05-31T01:04:05;14.20;99.90
1806;DHT22;901;48.142;11.516;2023-05-31T01:06:33;14.10;99.90
1806;DHT22;901;48.142;11.516;2023-05-31T01:09:02;14.10;99.90
1806;DHT22;901;48.142;11.516;2023-05-31T01:11:40;14.10;99.90
1806;DHT22;901;48.142;11.516;2023-05-31T01:14:16;14.00;99.90
1806;DHT22;901;48.142;11.516;2023-05-31T01:16:47;14.00;99.90
1806;DHT22;901;48.142;11.516;2023-05-31T01:19:24;14.00;99.90
1806;DHT22;901;48.142;11.516;2023-05-31T01:22:01;14.00;99.90
1806;DHT22;901;48.142;11.516;2023-05-31T01:24:45;13.90;99.90
1806;DHT22;901;48.142;11.516;2023-05-31T01:27:19;13.80;99.90
1806;DHT22;901;48.142;11.516;2023-05-31T01:29:46;13.80;99.90
1806;DHT22;901;48.142;11.516;2023-05-31T01:32:14;13.90;99.90
1806;DHT22;901;48.142;11.516;2023-05-31T01:34:44;13.80;99.90
1806;DHT22;901;48.142;11.516;2023-05-31T01:37:11;13.70;99.90
1806;DHT22;901;48.142;11.516;2023-05-31T01:39:38;13.70;99.90
1806;DHT22;901;48.142;11.516;2023-05-31T01:42:07;13.70;99.90
1806;DHT22;901;48.142;11.516;2023-05-31T01:44:36;13.60;99.90
1806;DHT22;901;48.142;11.516;2023-05-31T01:47:05;13.60;99.90
1806;DHT22;901;48.142;11.516;2023-05-31T01:49:33;13.50;99.90
1806;DHT22;901;48.142;11.516;2023-05-31T01:52:03;13.50;99.90
1806;DHT22;901;48.142;11.516;2023-05-31T01:54:30;13.50;99.90
1806;DHT22;901;48.142;11.516;2023-05-31T01:56:57;13.50;99.90
1806;DHT22;901;48.142;11.516;2023-05-31T01:59:25;13.40;99.90
1806;DHT22;901;48.142;11.516;2023-05-31T02:01:54;13.40;99.90
1806;DHT22;901;48.142;11.516;2023-05-31T02:04:21;13.40;99.90
1806;DHT22;901;48.142;11.516;2023-05-31T02:06:48;13.40;99.90
1806;DHT22;901;48.142;11.516;2023-05-31T02:09:17;13.40;99.90
1806;DHT22;901;48.142;11.516;2023-05-31T02:11:44;13.30;99.90
1806;DHT22;901;48.142;11.516;2023-05-31T02:14:11;13.30;99.90
1806;DHT22;901;48.142;11.516;2023-05-31T02:16:38;13.20;99.90
1806;DHT22;901;48.142;11.516;2023-05-31T02:19:06;13.20;99.90
1806;DHT22;901;48.142;11.516;2023-05-31T02:21:34;13.10;99.90
1806;DHT22;901;48.142;11.516;2023-05-31T02:24:02;13.20;99.90
1806;DHT22;901;48.142;11.516;2023-05-31T02:26:29;13.10;99.90
1806;DHT22;901;48.142;11.516;2023-05-31T02:28:56;13.10;99.90
1806;DHT22;901;48.142;11.516;2023-05-31T02:31:22;13.10;99.90
1806;DHT22;901;48.142;11.516;2023-05-31T02:33:49;13.00;99.90
1806;DHT22;901;48.142;11.516;2023-05-31T02:36:17;13.00;99.90
1806;DHT22;901;48.142;11.516;2023-05-31T02:38:44;13.10;99.90
1806;DHT22;901;48.142;11.516;2023-05-31T02:41:11;13.00;99.90
1806;DHT22;901;48.142;11.516;2023-05-31T02:43:38;13.00;99.90
1806;DHT22;901;48.142;11.516;2023-05-31T02:46:04;13.00;99.90
1806;DHT22;901;48.142;11.516;2023-05-31T02:48:31;12.90;99.90
1806;DHT22;901;48.142;11.516;2023-05-31T02:50:58;12.80;99.90
1806;DHT22;901;48.142;11.516;2023-05-31T02:53:26;12.80;99.90
1806;DHT22;901;48.142;11.516;2023-05-31T02:55:53;12.70;99.90
1806;DHT22;901;48.142;11.516;2023-05-31T02:58:20;12.70;99.90
1806;DHT22;901;48.142;11.516;2023-05-31T03:00:47;12.70;99.90
1806;DHT22;901;48.142;11.516;2023-05-31T03:03:14;12.70;99.90
1806;DHT22;901;48.142;11.516;2023-05-31T03:05:44;12.70;99.90
1806;DHT22;901;48.142;11.516;2023-05-31T03:08:11;12.60;99.90
1806;DHT22;901;48.142;11.516;2023-05-31T03:10:40;12.70;99.90
1806;DHT22;901;48.142;11.516;2023-05-31T03:13:07;12.60;99.90
1806;DHT22;901;48.142;11.516;2023-05-31T03:15:33;12.50;99.90
1806;DHT22;901;48.142;11.516;2023-05-31T03:18:01;12.50;99.90
1806;DHT22;901;48.142;11.516;2023-05-31T03:20:29;12.50;99.90
1806;DHT22;901;48.142;11.516;2023-05-31T03:22:56;12.50;99.90
1806;DHT22;901;48.142;11.516;2023-05-31T03:25:24;12.50;99.90
1806;DHT22;901;48.142;11.516;2023-05-31T03:27:52;12.50;99.90
1806;DHT22;901;48.142;11.516;2023-05-31T03:30:19;12.50;99.90
1806;DHT22;901;48.142;11.516;2023-05-31T03:32:46;12.60;99.90
1806;DHT22;901;48.142;11.516;2023-05-31T03:35:13;12.60;99.90
1806;DHT22;901;48.142;11.516;2023-05-31T03:37:39;12.70;99.90
1806;DHT22;901;48.142;11.516;2023-05-31T03:40:07;12.80;99.90
1806;DHT22;901;48.142;11.516;2023-05-31T03:42:35;12.90;99.90
1806;DHT22;901;48.142;11.516;2023-05-31T03:45:05;13.00;99.90
1806;DHT22;901;48.142;11.516;2023-05-31T03:47:32;13.10;99.90
1806;DHT22;901;48.142;11.516;2023-05-31T03:49:59;13.20;99.90
1806;DHT22;901;48.142;11.516;2023-05-31T03:52:25;13.40;99.90
1806;DHT22;901;48.142;11.516;2023-05-31T03:54:52;13.50;99.90
1806;DHT22;901;48.142;11.516;2023-05-31T03:57:19;13.70;99.90
1806;DHT22;901;48.142;11.516;2023-05-31T03:59:46;13.90;99.90
1806;DHT22;901;48.142;11.516;2023-05-31T04:02:14;14.10;99.90
1806;DHT22;901;48.142;11.516;2023-05-31T04:04:41;14.30;99.90
1806;DHT22;901;48.142;11.516;2023-05-31T04:07:08;14.50;99.90
1806;DHT22;901;48.142;11.516;2023-05-31T04:09:34;14.70;99.90
1806;DHT22;901;48.142;11.516;2023-05-31T04:12:01;15.00;99.90
1806;DHT22;901;48.142;11.516;2023-05-31T04:14:28;15.10;99.90
1806;DHT22;901;48.142;11.516;2023-05-31T04:16:55;15.20;99.90
1806;DHT22;901;48.142;11.516;2023-05-31T04:19:23;15.50;99.90
1806;DHT22;901;48.142;11.516;2023-05-31T04:21:50;15.50;99.90
1806;DHT22;901;48.142;11.516;2023-05-31T04:24:16;15.70;99.90
1806;DHT22;901;48.142;11.516;2023-05-31T04:26:43;16.10;99.90
1806;DHT22;901;48.142;11.516;2023-05-31T04:29:10;16.20;99.90
1806;DHT22;901;48.142;11.516;2023-05-31T04:31:37;16.30;99.90
1806;DHT22;901;48.142;11.516;2023-05-31T04:34:04;16.20;99.90
1806;DHT22;901;48.142;11.516;2023-05-31T04:36:33;16.40;99.90
1806;DHT22;901;48.142;11.516;2023-05-31T04:39:00;16.60;99.90
1806;DHT22;901;48.142;11.516;2023-05-31T04:41:31;16.70;99.90
1806;DHT22;901;48.142;11.516;2023-05-31T04:43:58;17.00;99.90
1806;DHT22;901;48.142;11.516;2023-05-31T04:46:24;17.00;99.90
1806;DHT22;901;48.142;11.516;2023-05-31T04:48:51;16.70;99.90
1806;DHT22;901;48.142;11.516;2023-05-31T04:51:18;17.00;99.90
1806;DHT22;901;48.142;11.516;2023-05-31T04:53:46;17.00;99.90
1806;DHT22;901;48.142;11.516;2023-05-31T04:56:14;17.20;99.90
1806;DHT22;901;48.142;11.516;2023-05-31T04:58:40;17.40;99.90
1806;DHT22;901;48.142;11.516;2023-05-31T05:01:08;17.50;99.90
1806;DHT22;901;48.142;11.516;2023-05-31T05:03:34;17.40;99.90
1806;DHT22;901;48.142;11.516;2023-05-31T05:06:11;17.50;99.90
1806;DHT22;901;48.142;11.516;2023-05-31T05:08:38;17.70;99.90
1806;DHT22;901;48.142;11.516;2023-05-31T05:11:07;17.50;99.90
1806;DHT22;901;48.142;11.516;2023-05-31T05:13:33;17.70;99.90
1806;DHT22;901;48.142;11.516;2023-05-31T05:16:00;17.50;99.90
1806;DHT22;901;48.142;11.516;2023-05-31T05:18:27;17.50;99.90
1806;DHT22;901;48.142;11.516;2023-05-31T05:20:54;17.60;99.90
1806;DHT22;901;48.142;11.516;2023-05-31T05:23:22;17.50;99.90
1806;DHT22;901;48.142;11.516;2023-05-31T05:25:49;17.60;99.90
1806;DHT22;901;48.142;11.516;2023-05-31T05:28:17;17.90;99.90
1806;DHT22;901;48.142;11.516;2023-05-31T05:30:44;17.80;99.90
1806;DHT22;901;48.142;11.516;2023-05-31T05:33:11;17.90;99.90
1806;DHT22;901;48.142;11.516;2023-05-31T05:35:38;18.00;99.90
1806;DHT22;901;48.142;11.516;2023-05-31T05:38:04;17.90;99.90
1806;DHT22;901;48.142;11.516;2023-05-31T05:40:31;17.90;99.90
1806;DHT22;901;48.142;11.516;2023-05-31T05:42:58;17.90;99.90
1806;DHT22;901;48.142;11.516;2023-05-31T05:45:26;18.00;99.90
1806;DHT22;901;48.142;11.516;2023-05-31T05:47:53;18.40;99.90
1806;DHT22;901;48.142;11.516;2023-05-31T05:50:21;18.30;99.90
1806;DHT22;901;48.142;11.516;2023-05-31T05:52:48;18.50;99.90
1806;DHT22;901;48.142;11.516;2023-05-31T05:55:15;18.70;99.90
1806;DHT22;901;48.142;11.516;2023-05-31T05:57:42;18.70;99.90
1806;DHT22;901;48.142;11.516;2023-05-31T06:00:09;18.50;99.90
1806;DHT22;901;48.142;11.516;2023-05-31T06:02:38;18.60;99.90
1806;DHT22;901;48.142;11.516;2023-05-31T06:05:06;18.60;99.90
1806;DHT22;901;48.142;11.516;2023-05-31T06:07:34;18.50;99.90
1806;DHT22;901;48.142;11.516;2023-05-31T06:10:00;18.40;99.90
1806;DHT22;901;48.142;11.516;2023-05-31T06:12:28;18.30;99.90
1806;DHT22;901;48.142;11.516;2023-05-31T06:14:55;18.30;99.90
1806;DHT22;901;48.142;11.516;2023-05-31T06:17:22;17.60;99.90
1806;DHT22;901;48.142;11.516;2023-05-31T06:19:50;17.70;99.90
1806;DHT22;901;48.142;11.516;2023-05-31T06:22:17;17.30;99.90
1806;DHT22;901;48.142;11.516;2023-05-31T06:24:44;16.90;99.90
1806;DHT22;901;48.142;11.516;2023-05-31T06:27:12;16.90;99.90
1806;DHT22;901;48.142;11.516;2023-05-31T06:29:40;17.00;99.90
1806;DHT22;901;48.142;11.516;2023-05-31T06:32:07;17.10;99.90
1806;DHT22;901;48.142;11.516;2023-05-31T06:34:34;17.20;99.90
1806;DHT22;901;48.142;11.516;2023-05-31T06:37:02;17.20;99.90
1806;DHT22;901;48.142;11.516;2023-05-31T06:39:29;16.80;99.90
1806;DHT22;901;48.142;11.516;2023-05-31T06:41:56;17.00;99.90
1806;DHT22;901;48.142;11.516;2023-05-31T06:44:25;17.00;99.90
1806;DHT22;901;48.142;11.516;2023-05-31T06:46:52;17.00;99.90
1806;DHT22;901;48.142;11.516;2023-05-31T06:49:18;17.00;99.90
1806;DHT22;901;48.142;11.516;2023-05-31T06:51:45;16.70;99.90
1806;DHT22;901;48.142;11.516;2023-05-31T06:54:13;16.60;99.90
1806;DHT22;901;48.142;11.516;2023-05-31T06:56:40;16.70;99.90
1806;DHT22;901;48.142;11.516;2023-05-31T06:59:07;16.90;99.90
1806;DHT22;901;48.142;11.516;2023-05-31T07:01:34;17.00;99.90
1806;DHT22;901;48.142;11.516;2023-05-31T07:04:01;17.20;99.90
1806;DHT22;901;48.142;11.516;2023-05-31T07:06:28;17.10;99.90
1806;DHT22;901;48.142;11.516;2023-05-31T07:08:55;17.20;99.90
1806;DHT22;901;48.142;11.516;2023-05-31T07:11:23;17.30;99.90
1806;DHT22;901;48.142;11.516;2023-05-31T07:13:50;17.40;99.90
1806;DHT22;901;48.142;11.516;2023-05-31T07:16:17;17.60;99.90
1806;DHT22;901;48.142;11.516;2023-05-31T07:18:44;17.60;99.90
1806;DHT22;901;48.142;11.516;2023-05-31T07:21:12;17.70;99.90
1806;DHT22;901;48.142;11.516;2023-05-31T07:23:39;17.80;99.90
1806;DHT22;901;48.142;11.516;2023-05-31T07:26:05;17.80;99.90
1806;DHT22;901;48.142;11.516;2023-05-31T07:28:33;17.80;99.90
1806;DHT22;901;48.142;11.516;2023-05-31T07:31:01;17.80;99.90
1806;DHT22;901;48.142;11.516;2023-05-31T07:33:28;17.80;99.90
1806;DHT22;901;48.142;11.516;2023-05-31T07:35:55;17.90;99.90
1806;DHT22;901;48.142;11.516;2023-05-31T07:38:21;17.70;99.90
1806;DHT22;901;48.142;11.516;2023-05-31T07:40:48;17.80;99.90
1806;DHT22;901;48.142;11.516;2023-05-31T07:43:15;17.90;99.90
1806;DHT22;901;48.142;11.516;2023-05-31T07:45:47;18.00;99.90
1806;DHT22;901;48.142;11.516;2023-05-31T07:48:15;18.10;99.90
1806;DHT22;901;48.142;11.516;2023-05-31T07:50:42;18.20;99.90
1806;DHT22;901;48.142;11.516;2023-05-31T07:53:08;18.40;99.90
1806;DHT22;901;48.142;11.516;2023-05-31T07:55:35;18.40;99.90
1806;DHT22;901;48.142;11.516;2023-05-31T07:58:02;18.50;99.90
1806;DHT22;901;48.142;11.516;2023-05-31T08:00:29;18.50;99.90
1806;DHT22;901;48.142;11.516;2023-05-31T08:02:58;18.40;99.90
1806;DHT22;901;48.142;11.516;2023-05-31T08:05:25;18.30;99.90
1806;DHT22;901;48.142;11.516;2023-05-31T08:07:52;18.40;99.90
1806;DHT22;901;48.142;11.516;2023-05-31T08:10:19;18.50;99.90
1806;DHT22;901;48.142;11.516;2023-05-31T08:12:46;18.60;99.90
1806;DHT22;901;48.142;11.516;2023-05-31T08:15:13;18.70;99.90
1806;DHT22;901;48.142;11.516;2023-05-31T08:17:40;18.90;99.90
1806;DHT22;901;48.142;11.516;2023-05-31T08:20:10;18.90;99.90
1806;DHT22;901;48.142;11.516;2023-05-31T08:22:41;18.90;99.90
1806;DHT22;901;48.142;11.516;2023-05-31T08:25:08;18.90;99.90
1806;DHT22;901;48.142;11.516;2023-05-31T08:27:38;18.80;99.90
1806;DHT22;901;48.142;11.516;2023-05-31T08:30:07;18.90;99.90
1806;DHT22;901;48.142;11.516;2023-05-31T08:32:34;19.10;99.90
1806;DHT22;901;48.142;11.516;2023-05-31T08:35:01;19.10;99.90
1806;DHT22;901;48.142;11.516;2023-05-31T08:37:30;19.10;99.90
1806;DHT22;901;48.142;11.516;2023-05-31T08:39:56;19.20;99.90
1806;DHT22;901;48.142;11.516;2023-05-31T08:42:25;19.40;99.90
1806;DHT22;901;48.142;11.516;2023-05-31T08:44:55;19.60;99.90
1806;DHT22;901;48.142;11.516;2023-05-31T08:47:23;19.50;99.90
1806;DHT22;901;48.142;11.516;2023-05-31T08:49:52;19.50;99.90
1806;DHT22;901;48.142;11.516;2023-05-31T08:52:21;19.40;99.90
1806;DHT22;901;48.142;11.516;2023-05-31T08:54:50;19.40;99.90
1806;DHT22;901;48.142;11.516;2023-05-31T08:57:17;19.50;99.90
1806;DHT22;901;48.142;11.516;2023-05-31T08:59:44;19.70;99.90
1806;DHT22;901;48.142;11.516;2023-05-31T09:02:12;19.60;99.90
1806;DHT22;901;48.142;11.516;2023-05-31T09:04:40;19.70;99.90
1806;DHT22;901;48.142;11.516;2023-05-31T09:07:07;19.70;99.90
1806;DHT22;901;48.142;11.516;2023-05-31T09:09:34;19.70;99.90
1806;DHT22;901;48.142;11.516;2023-05-31T09:12:03;19.70;99.90
1806;DHT22;901;48.142;11.516;2023-05-31T09:14:31;19.70;99.90
1806;DHT22;901;48.142;11.516;2023-05-31T09:16:59;19.70;99.90
1806;DHT22;901;48.142;11.516;2023-05-31T09:19:26;19.70;99.90
1806;DHT22;901;48.142;11.516;2023-05-31T09:21:53;19.80;99.90
1806;DHT22;901;48.142;11.516;2023-05-31T09:24:20;19.90;99.90
1806;DHT22;901;48.142;11.516;2023-05-31T09:26:48;19.90;99.90
1806;DHT22;901;48.142;11.516;2023-05-31T09:29:17;20.00;99.90
1806;DHT22;901;48.142;11.516;2023-05-31T09:31:45;20.20;99.90
1806;DHT22;901;48.142;11.516;2023-05-31T09:34:24;20.40;99.90
1806;DHT22;901;48.142;11.516;2023-05-31T09:36:51;20.10;99.90
1806;DHT22;901;48.142;11.516;2023-05-31T09:39:18;20.20;99.90
1806;DHT22;901;48.142;11.516;2023-05-31T09:41:50;20.20;99.90
1806;DHT22;901;48.142;11.516;2023-05-31T09:44:18;20.30;99.90
1806;DHT22;901;48.142;11.516;2023-05-31T09:46:45;20.40;99.90
1806;DHT22;901;48.142;11.516;2023-05-31T09:49:13;20.40;99.90
1806;DHT22;901;48.142;11.516;2023-05-31T09:51:40;20.40;99.90
1806;DHT22;901;48.142;11.516;2023-05-31T09:54:10;20.20;99.90
1806;DHT22;901;48.142;11.516;2023-05-31T09:56:38;20.30;99.90
1806;DHT22;901;48.142;11.516;2023-05-31T09:59:05;20.30;99.90
1806;DHT22;901;48.142;11.516;2023-05-31T10:01:34;20.50;99.90
1806;DHT22;901;48.142;11.516;2023-05-31T10:04:02;20.70;99.90
1806;DHT22;901;48.142;11.516;2023-05-31T10:06:30;20.80;99.90
1806;DHT22;901;48.142;11.516;2023-05-31T10:09:00;20.70;99.90
1806;DHT22;901;48.142;11.516;2023-05-31T10:11:31;20.80;99.90
1806;DHT22;901;48.142;11.516;2023-05-31T10:14:02;21.00;99.90
1806;DHT22;901;48.142;11.516;2023-05-31T10:16:35;20.80;99.90
1806;DHT22;901;48.142;11.516;2023-05-31T10:19:06;20.90;99.90
1806;DHT22;901;48.142;11.516;2023-05-31T10:21:35;20.80;99.90
1806;DHT22;901;48.142;11.516;2023-05-31T10:24:07;21.00;99.90
1806;DHT22;901;48.142;11.516;2023-05-31T10:26:40;20.90;99.90
1806;DHT22;901;48.142;11.516;2023-05-31T10:29:15;20.90;99.90
1806;DHT22;901;48.142;11.516;2023-05-31T10:31:48;21.00;99.90
1806;DHT22;901;48.142;11.516;2023-05-31T10:34:19;21.20;99.90
1806;DHT22;901;48.142;11.516;2023-05-31T10:36:48;21.20;99.90
1806;DHT22;901;48.142;11.516;2023-05-31T10:39:21;21.30;99.90
1806;DHT22;901;48.142;11.516;2023-05-31T10:41:55;21.50;99.90
1806;DHT22;901;48.142;11.516;2023-05-31T10:44:29;21.20;99.90
1806;DHT22;901;48.142;11.516;2023-05-31T10:47:03;21.30;99.90
1806;DHT22;901;48.142;11.516;2023-05-31T10:49:35;21.40;99.90
1806;DHT22;901;48.142;11.516;2023-05-31T10:52:08;21.40;99.90
1806;DHT22;901;48.142;11.516;2023-05-31T10:54:35;21.40;99.90
1806;DHT22;901;48.142;11.516;2023-05-31T10:57:03;21.40;99.90
1806;DHT22;901;48.142;11.516;2023-05-31T10:59:40;21.30;99.90
1806;DHT22;901;48.142;11.516;2023-05-31T11:02:10;21.40;99.90
1806;DHT22;901;48.142;11.516;2023-05-31T11:04:37;21.60;99.90
1806;DHT22;901;48.142;11.516;2023-05-31T11:07:12;21.60;99.90
1806;DHT22;901;48.142;11.516;2023-05-31T11:09:41;21.60;99.90
1806;DHT22;901;48.142;11.516;2023-05-31T11:12:11;21.70;99.90
1806;DHT22;901;48.142;11.516;2023-05-31T11:14:38;21.70;99.90
1806;DHT22;901;48.142;11.516;2023-05-31T11:17:16;21.70;99.90
1806;DHT22;901;48.142;11.516;2023-05-31T11:19:50;21.80;99.90
1806;DHT22;901;48.142;11.516;2023-05-31T11:22:22;21.80;99.90
1806;DHT22;901;48.142;11.516;2023-05-31T11:24:52;21.90;99.90
1806;DHT22;901;48.142;11.516;2023-05-31T11:27:20;21.90;99.90
1806;DHT22;901;48.142;11.516;2023-05-31T11:29:56;21.90;99.90
1806;DHT22;901;48.142;11.516;2023-05-31T11:35:35;22.00;99.90
1806;DHT22;901;48.142;11.516;2023-05-31T11:38:04;22.10;99.90
1806;DHT22;901;48.142;11.516;2023-05-31T11:40:33;22.10;99.90
1806;DHT22;901;48.142;11.516;2023-05-31T11:43:08;22.30;99.90
1806;DHT22;901;48.142;11.516;2023-05-31T11:45:40;22.30;99.90
1806;DHT22;901;48.142;11.516;2023-05-31T11:48:37;22.30;99.90
1806;DHT22;901;48.142;11.516;2023-05-31T11:51:06;22.20;99.90
1806;DHT22;901;48.142;11.516;2023-05-31T11:53:33;22.00;99.90
1806;DHT22;901;48.142;11.516;2023-05-31T11:56:00;22.10;99.90
1806;DHT22;901;48.142;11.516;2023-05-31T11:58:27;22.00;99.90
1806;DHT22;901;48.142;11.516;2023-05-31T12:00:58;22.10;99.90
1806;DHT22;901;48.142;11.516;2023-05-31T12:03:25;22.30;99.90
1806;DHT22;901;48.142;11.516;2023-05-31T12:05:56;22.00;99.90
1806;DHT22;901;48.142;11.516;2023-05-31T12:08:26;22.00;99.90
1806;DHT22;901;48.142;11.516;2023-05-31T12:10:54;22.20;99.90
1806;DHT22;901;48.142;11.516;2023-05-31T12:13:26;22.10;99.90
1806;DHT22;901;48.142;11.516;2023-05-31T12:15:54;22.10;99.90
1806;DHT22;901;48.142;11.516;2023-05-31T12:18:21;22.20;99.90
1806;DHT22;901;48.142;11.516;2023-05-31T12:20:48;22.20;99.90
1806;DHT22;901;48.142;11.516;2023-05-31T12:23:16;22.20;99.90
1806;DHT22;901;48.142;11.516;2023-05-31T12:25:46;22.10;99.90
1806;DHT22;901;48.142;11.516;2023-05-31T12:28:16;22.30;99.90
1806;DHT22;901;48.142;11.516;2023-05-31T12:30:44;22.30;99.90
1806;DHT22;901;48.142;11.516;2023-05-31T12:33:11;22.40;99.90
1806;DHT22;901;48.142;11.516;2023-05-31T12:35:42;22.50;99.90
1806;DHT22;901;48.142;11.516;2023-05-31T12:38:09;22.40;99.90
1806;DHT22;901;48.142;11.516;2023-05-31T12:40:41;22.40;99.90
1806;DHT22;901;48.142;11.516;2023-05-31T12:43:11;22.50;99.90
1806;DHT22;901;48.142;11.516;2023-05-31T12:45:40;22.70;99.90
1806;DHT22;901;48.142;11.516;2023-05-31T12:48:09;22.90;99.90
1806;DHT22;901;48.142;11.516;2023-05-31T12:50:37;22.70;99.90
1806;DHT22;901;48.142;11.516;2023-05-31T12:53:09;22.70;99.90
1806;DHT22;901;48.142;11.516;2023-05-31T12:55:36;22.60;99.90
1806;DHT22;901;48.142;11.516;2023-05-31T12:58:03;22.30;99.90
1806;DHT22;901;48.142;11.516;2023-05-31T13:03:01;22.30;99.90
1806;DHT22;901;48.142;11.516;2023-05-31T13:05:28;22.50;99.90
1806;DHT22;901;48.142;11.516;2023-05-31T13:07:55;22.70;99.90
1806;DHT22;901;48.142;11.516;2023-05-31T13:10:22;22.70;99.90
1806;DHT22;901;48.142;11.516;2023-05-31T13:12:49;22.80;99.90
1806;DHT22;901;48.142;11.516;2023-05-31T13:15:16;22.60;99.90
1806;DHT22;901;48.142;11.516;2023-05-31T13:17:44;22.50;99.90
1806;DHT22;901;48.142;11.516;2023-05-31T13:20:11;22.60;99.90
1806;DHT22;901;48.142;11.516;2023-05-31T13:22:38;22.60;99.90
1806;DHT22;901;48.142;11.516;2023-05-31T13:25:06;22.50;99.90
1806;DHT22;901;48.142;11.516;2023-05-31T13:27:33;22.50;99.90
1806;DHT22;901;48.142;11.516;2023-05-31T13:30:00;22.60;99.90
1806;DHT22;901;48.142;11.516;2023-05-31T13:32:27;22.70;99.90
1806;DHT22;901;48.142;11.516;2023-05-31T13:34:56;22.60;99.90
1806;DHT22;901;48.142;11.516;2023-05-31T13:37:22;22.70;99.90
1806;DHT22;901;48.142;11.516;2023-05-31T13:39:49;22.70;99.90
1806;DHT22;901;48.142;11.516;2023-05-31T13:42:17;22.60;99.90
1806;DHT22;901;48.142;11.516;2023-05-31T13:44:43;22.70;99.90
1806;DHT22;901;48.142;11.516;2023-05-31T13:47:10;22.80;99.90
1806;DHT22;901;48.142;11.516;2023-05-31T13:49:37;22.90;99.90
1806;DHT22;901;48.142;11.516;2023-05-31T13:52:06;23.00;99.90
1806;DHT22;901;48.142;11.516;2023-05-31T13:54:35;22.90;99.90
1806;DHT22;901;48.142;11.516;2023-05-31T13:57:02;22.90;99.90
1806;DHT22;901;48.142;11.516;2023-05-31T13:59:29;23.10;99.90
1806;DHT22;901;48.142;11.516;2023-05-31T14:01:56;23.10;99.90
1806;DHT22;901;48.142;11.516;2023-05-31T14:04:23;23.00;99.90
1806;DHT22;901;48.142;11.516;2023-05-31T14:06:50;22.90;99.90
1806;DHT22;901;48.142;11.516;2023-05-31T14:09:18;22.90;99.90
1806;DHT22;901;48.142;11.516;2023-05-31T14:11:46;22.80;99.90
1806;DHT22;901;48.142;11.516;2023-05-31T14:14:13;22.80;99.90
1806;DHT22;901;48.142;11.516;2023-05-31T14:16:40;22.70;99.90
1806;DHT22;901;48.142;11.516;2023-05-31T14:19:07;22.70;99.90
1806;DHT22;901;48.142;11.516;2023-05-31T14:21:34;22.70;99.90
1806;DHT22;901;48.142;11.516;2023-05-31T14:24:02;22.80;99.90
1806;DHT22;901;48.142;11.516;2023-05-31T14:26:31;22.70;99.90
1806;DHT22;901;48.142;11.516;2023-05-31T14:28:57;22.70;99.90
1806;DHT22;901;48.142;11.516;2023-05-31T14:31:24;22.70;99.90
1806;DHT22;901;48.142;11.516;2023-05-31T14:33:51;22.80;99.90
1806;DHT22;901;48.142;11.516;2023-05-31T14:36:18;22.90;99.90
1806;DHT22;901;48.142;11.516;2023-05-31T14:38:44;23.00;99.90
1806;DHT22;901;48.142;11.516;2023-05-31T14:41:11;23.30;99.90
1806;DHT22;901;48.142;11.516;2023-05-31T14:43:40;23.30;99.90
1806;DHT22;901;48.142;11.516;2023-05-31T14:46:06;23.20;99.90
1806;DHT22;901;48.142;11.516;2023-05-31T14:48:33;23.20;99.90
1806;DHT22;901;48.142;11.516;2023-05-31T14:51:00;23.10;99.90
1806;DHT22;901;48.142;11.516;2023-05-31T14:53:27;23.20;99.90
1806;DHT22;901;48.142;11.516;2023-05-31T14:55:54;23.20;99.90
1806;DHT22;901;48.142;11.516;2023-05-31T14:58:20;23.30;99.90
1806;DHT22;901;48.142;11.516;2023-05-31T15:00:50;23.30;99.90
1806;DHT22;901;48.142;11.516;2023-05-31T15:03:17;23.40;99.90
1806;DHT22;901;48.142;11.516;2023-05-31T15:05:44;23.30;99.90
1806;DHT22;901;48.142;11.516;2023-05-31T15:08:11;23.30;99.90
1806;DHT22;901;48.142;11.516;2023-05-31T15:10:38;23.30;99.90
1806;DHT22;901;48.142;11.516;2023-05-31T15:13:04;23.40;99.90
1806;DHT22;901;48.142;11.516;2023-05-31T15:15:31;23.30;99.90
1806;DHT22;901;48.142;11.516;2023-05-31T15:17:59;23.50;99.90
1806;DHT22;901;48.142;11.516;2023-05-31T15:20:27;23.40;99.90
1806;DHT22;901;48.142;11.516;2023-05-31T15:22:53;23.50;99.90
1806;DHT22;901;48.142;11.516;2023-05-31T15:25:20;23.70;99.90
1806;DHT22;901;48.142;11.516;2023-05-31T15:27:47;23.60;99.90
1806;DHT22;901;48.142;11.516;2023-05-31T15:30:14;23.60;99.90
1806;DHT22;901;48.142;11.516;2023-05-31T15:32:41;23.70;99.90
1806;DHT22;901;48.142;11.516;2023-05-31T15:35:09;23.70;99.90
1806;DHT22;901;48.142;11.516;2023-05-31T15:37:36;23.50;99.90
1806;DHT22;901;48.142;11.516;2023-05-31T15:40:03;23.50;99.90
1806;DHT22;901;48.142;11.516;2023-05-31T15:42:30;23.50;99.90
1806;DHT22;901;48.142;11.516;2023-05-31T15:44:57;23.70;99.90
1806;DHT22;901;48.142;11.516;2023-05-31T15:47:24;23.60;99.90
1806;DHT22;901;48.142;11.516;2023-05-31T15:49:51;23.60;99.90
1806;DHT22;901;48.142;11.516;2023-05-31T15:52:19;23.70;99.90
1806;DHT22;901;48.142;11.516;2023-05-31T15:54:46;23.70;99.90
1806;DHT22;901;48.142;11.516;2023-05-31T15:57:12;23.60;99.90
1806;DHT22;901;48.142;11.516;2023-05-31T15:59:39;23.60;99.90
1806;DHT22;901;48.142;11.516;2023-05-31T16:02:06;23.50;99.90
1806;DHT22;901;48.142;11.516;2023-05-31T16:04:33;23.40;99.90
1806;DHT22;901;48.142;11.516;2023-05-31T16:07:00;23.40;99.90
1806;DHT22;901;48.142;11.516;2023-05-31T16:09:28;23.50;99.90
1806;DHT22;901;48.142;11.516;2023-05-31T16:11:55;23.40;99.90